createdAt,value
2018-12-02T00:00:54.883Z,173.07
2018-12-02T00:15:51.522Z,174.35
2018-12-02T00:30:51.448Z,182.25
2018-12-02T00:45:52.678Z,144.00
2018-12-02T01:00:51.740Z,167.47
2018-12-02T01:15:52.564Z,133.78
2018-12-02T01:30:52.569Z,133.30
2018-12-02T01:45:51.385Z,144.20
2018-12-02T02:00:50.781Z,152.22
2018-12-02T02:15:50.887Z,165.07
2018-12-02T02:30:51.876Z,147.62
2018-12-02T02:45:51.570Z,152.55
2018-12-02T03:00:51.011Z,123.13
2018-12-02T03:15:50.930Z,131.40
2018-12-02T03:30:52.819Z,152.22
2018-12-02T03:45:51.715Z,160.67
2018-12-02T04:00:51.131Z,187.43
2018-12-02T04:15:51.020Z,202.55
2018-12-02T04:30:51.083Z,177.02
2018-12-02T04:45:52.836Z,180.03
2018-12-02T05:00:50.761Z,200.32
2018-12-02T05:15:51.240Z,249.80
2018-12-02T05:30:51.150Z,255.95
2018-12-02T05:45:51.016Z,255.50
2018-12-02T06:00:51.870Z,248.28
2018-12-02T06:15:50.874Z,218.97
2018-12-02T06:30:50.755Z,225.78
2018-12-02T06:45:50.170Z,202.10
2018-12-02T07:15:50.469Z,202.35
2018-12-02T07:30:50.455Z,225.03
2018-12-02T07:45:50.838Z,233.05
2018-12-02T08:00:50.687Z,235.57
2018-12-02T08:15:50.535Z,239.10
2018-12-02T08:30:50.205Z,232.22
2018-12-02T08:45:50.962Z,237.50
2018-12-02T09:00:50.834Z,222.25
2018-12-02T09:15:50.814Z,174.20
2018-12-02T09:30:50.771Z,214.95
2018-12-02T09:45:51.158Z,219.68
2018-12-02T10:00:52.065Z,195.75
2018-12-02T10:15:52.442Z,216.65
2018-12-02T10:30:50.924Z,219.13
2018-12-02T10:45:51.370Z,213.03
2018-12-02T11:00:58.371Z,209.22
2018-12-02T11:45:48.866Z,263.65
2018-12-02T12:00:52.818Z,282.45
2018-12-02T12:15:50.629Z,264.35
2018-12-02T12:30:50.534Z,246.15
2018-12-02T12:45:50.797Z,236.97
2018-12-02T13:00:50.846Z,227.93
2018-12-02T13:15:50.526Z,223.78
2018-12-02T13:30:50.522Z,249.32
2018-12-02T13:45:51.763Z,228.98
2018-12-02T14:00:50.858Z,186.25
2018-12-02T14:15:55.730Z,188.80
2018-12-02T14:30:50.732Z,201.77
2018-12-02T14:45:51.078Z,218.57
2018-12-02T15:00:50.836Z,207.40
2018-12-02T15:15:51.181Z,221.13
2018-12-02T15:30:50.907Z,209.03
2018-12-02T15:45:53.285Z,132.47
2018-12-02T16:00:51.275Z,119.02
2018-12-02T16:15:54.506Z,130.45
2018-12-02T16:30:53.998Z,187.22
2018-12-02T16:45:50.015Z,160.65
2018-12-02T17:00:57.422Z,135.05
2018-12-02T17:15:49.898Z,156.32
2018-12-02T17:30:57.280Z,173.78
2018-12-02T17:45:51.707Z,189.52
2018-12-02T18:00:50.447Z,173.17
2018-12-02T18:15:50.566Z,165.22
2018-12-02T18:30:53.533Z,172.15
2018-12-02T19:45:58.997Z,127.90
2018-12-02T20:00:56.601Z,149.80
2018-12-02T20:45:56.124Z,187.03
2018-12-02T21:00:53.439Z,182.22
2018-12-02T21:15:51.341Z,143.28
2018-12-02T21:30:51.396Z,193.43
2018-12-02T21:45:50.614Z,149.85
2018-12-02T22:00:55.540Z,108.65
2018-12-02T22:15:56.634Z,108.42
2018-12-02T22:30:53.514Z,130.43
2018-12-02T22:45:52.785Z,127.60
2018-12-02T23:00:55.958Z,121.75
2018-12-02T23:15:53.773Z,101.25
2018-12-02T23:30:52.156Z,88.55
2018-12-02T23:45:52.949Z,70.80
